createdAt,value
2023-01-19T00:01:25.934Z,99218.22
2023-01-19T00:03:53.388Z,99216.16
2023-01-19T00:06:21.015Z,99220.91
2023-01-19T00:08:50.241Z,99215.81
2023-01-19T00:11:18.227Z,99215.22
2023-01-19T00:13:53.602Z,99216.63
2023-01-19T00:16:23.333Z,99211.72
2023-01-19T00:18:52.106Z,99216.97
2023-01-19T00:21:21.774Z,99213.47
2023-01-19T00:23:51.316Z,99215.38
2023-01-19T00:26:19.479Z,99213.16
2023-01-19T00:28:46.805Z,99215.69
2023-01-19T00:31:14.231Z,99204.91
2023-01-19T00:33:41.759Z,99199.53
2023-01-19T00:36:09.958Z,99202.69
2023-01-19T00:38:39.029Z,99196.03
2023-01-19T00:41:06.831Z,99193.50
2023-01-19T00:43:34.226Z,99193.34
2023-01-19T00:46:01.689Z,99192.09
2023-01-19T00:48:29.636Z,99190.63
2023-01-19T00:50:57.011Z,99185.25
2023-01-19T00:53:24.455Z,99179.69
2023-01-19T00:55:52.113Z,99190.00
2023-01-19T00:58:19.495Z,99186.66
2023-01-19T01:00:46.977Z,99194.25
2023-01-19T01:03:14.501Z,99196.97
2023-01-19T01:05:42.556Z,99200.59
2023-01-19T01:08:10.032Z,99202.94
2023-01-19T01:10:37.423Z,99205.50
2023-01-19T01:13:20.435Z,99201.38
2023-01-19T01:15:51.201Z,99213.06
2023-01-19T01:18:18.511Z,99211.50
2023-01-19T01:20:46.027Z,99209.63
2023-01-19T01:23:14.345Z,99211.69
2023-01-19T01:25:42.740Z,99198.09
2023-01-19T01:28:10.322Z,99202.50
2023-01-19T01:30:41.074Z,99206.78
2023-01-19T01:33:08.688Z,99209.00
2023-01-19T01:35:36.305Z,99207.25
2023-01-19T01:38:04.146Z,99207.72
2023-01-19T01:40:31.627Z,99208.03
2023-01-19T01:42:59.362Z,99201.09
2023-01-19T01:45:38.631Z,99193.94
2023-01-19T01:48:23.994Z,99200.13
2023-01-19T01:51:17.342Z,99190.78
2023-01-19T01:53:47.234Z,99193.00
2023-01-19T01:56:20.933Z,99198.53
2023-01-19T01:58:49.759Z,99193.75
2023-01-19T02:01:35.760Z,99195.19
2023-01-19T02:04:03.631Z,99198.81
2023-01-19T02:06:31.091Z,99195.84
2023-01-19T02:09:23.232Z,99199.66
2023-01-19T02:12:09.400Z,99192.69
2023-01-19T02:14:37.557Z,99194.13
2023-01-19T02:17:06.608Z,99183.81
2023-01-19T02:19:42.362Z,99183.81
2023-01-19T02:22:19.982Z,99183.66
2023-01-19T02:24:47.765Z,99189.19
2023-01-19T02:27:15.924Z,99186.34
2023-01-19T02:29:43.615Z,99197.88
2023-01-19T02:32:11.253Z,99188.69
2023-01-19T02:34:38.717Z,99185.56
2023-01-19T02:37:11.471Z,99185.84
2023-01-19T02:39:47.514Z,99172.25
2023-01-19T02:42:19.839Z,99169.06
2023-01-19T02:44:50.868Z,99172.09
2023-01-19T02:47:18.443Z,99176.66
2023-01-19T02:49:54.867Z,99189.78
2023-01-19T02:52:22.820Z,99194.41
2023-01-19T02:55:07.066Z,99193.94
2023-01-19T02:58:06.574Z,99197.72
2023-01-19T03:00:43.285Z,99205.97
2023-01-19T03:03:36.883Z,99207.69
2023-01-19T03:06:37.771Z,99217.94
2023-01-19T03:09:15.839Z,99213.22
2023-01-19T03:11:50.214Z,99215.91
2023-01-19T03:14:23.589Z,99220.19
2023-01-19T03:16:56.716Z,99226.22
2023-01-19T03:19:32.835Z,99225.28
2023-01-19T03:22:05.484Z,99211.03
2023-01-19T03:24:37.131Z,99218.81
2023-01-19T03:27:20.042Z,99218.50
2023-01-19T03:30:08.175Z,99230.94
2023-01-19T03:32:44.923Z,99230.81
2023-01-19T03:35:14.991Z,99228.91
2023-01-19T03:37:46.014Z,99235.53
2023-01-19T03:40:13.605Z,99233.66
2023-01-19T03:42:42.309Z,99247.44
2023-01-19T03:45:12.327Z,99248.25
2023-01-19T03:47:40.223Z,99249.84
2023-01-19T03:50:13.963Z,99233.38
2023-01-19T03:52:41.656Z,99224.34
2023-01-19T03:55:10.121Z,99220.84
2023-01-19T03:57:37.701Z,99225.16
2023-01-19T04:00:05.704Z,99225.31
2023-01-19T04:02:39.575Z,99219.31
2023-01-19T04:05:07.388Z,99229.59
2023-01-19T04:07:34.834Z,99229.56
2023-01-19T04:10:02.308Z,99231.94
2023-01-19T04:12:29.928Z,99228.47
2023-01-19T04:14:57.383Z,99226.25
2023-01-19T04:17:25.033Z,99224.03
2023-01-19T04:19:53.331Z,99220.72
2023-01-19T04:22:20.949Z,99220.72
2023-01-19T04:24:48.443Z,99226.25
2023-01-19T04:27:16.465Z,99216.56
2023-01-19T04:29:44.102Z,99214.81
2023-01-19T04:32:13.622Z,99217.50
2023-01-19T04:34:41.263Z,99217.81
2023-01-19T04:37:08.648Z,99217.63
2023-01-19T04:39:36.612Z,99214.94
2023-01-19T04:42:04.394Z,99226.00
2023-01-19T04:44:31.926Z,99236.47
2023-01-19T04:46:59.482Z,99236.63
2023-01-19T04:49:26.963Z,99228.41
2023-01-19T04:51:54.814Z,99237.78
2023-01-19T04:54:22.601Z,99216.84
2023-01-19T04:56:50.277Z,99230.50
2023-01-19T04:59:18.007Z,99231.91
2023-01-19T05:01:45.691Z,99240.16
2023-01-19T05:04:13.373Z,99239.38
2023-01-19T05:06:40.917Z,99237.81
2023-01-19T05:09:09.223Z,99233.66
2023-01-19T05:11:36.740Z,99246.03
2023-01-19T05:14:04.380Z,99247.81
2023-01-19T05:16:31.956Z,99238.91
2023-01-19T05:18:59.438Z,99243.19
2023-01-19T05:21:27.070Z,99235.56
2023-01-19T05:23:54.496Z,99243.84
2023-01-19T05:26:22.009Z,99242.00
2023-01-19T05:28:50.408Z,99242.94
2023-01-19T05:31:19.615Z,99252.28
2023-01-19T05:33:48.318Z,99259.22
2023-01-19T05:36:16.031Z,99266.03
2023-01-19T05:38:43.497Z,99267.31
2023-01-19T05:41:11.324Z,99270.09
2023-01-19T05:43:38.962Z,99268.09
2023-01-19T05:46:06.815Z,99274.72
2023-01-19T05:48:34.294Z,99276.63
2023-01-19T05:51:01.923Z,99272.81
2023-01-19T05:53:29.456Z,99276.47
2023-01-19T05:56:05.532Z,99265.22
2023-01-19T05:58:34.600Z,99260.44
2023-01-19T06:01:05.569Z,99279.66
2023-01-19T06:03:34.679Z,99282.66
2023-01-19T06:06:03.247Z,99292.66
2023-01-19T06:08:30.722Z,99298.31
2023-01-19T06:10:58.146Z,99305.28
2023-01-19T06:13:25.693Z,99290.72
2023-01-19T06:15:58.374Z,99312.41
2023-01-19T06:18:26.000Z,99311.13
2023-01-19T06:20:58.644Z,99312.38
2023-01-19T06:23:27.510Z,99315.56
2023-01-19T06:25:54.964Z,99324.78
2023-01-19T06:28:23.133Z,99331.53
2023-01-19T06:30:54.672Z,99320.59
2023-01-19T06:33:24.136Z,99333.66
2023-01-19T06:35:52.208Z,99328.13
2023-01-19T06:38:20.198Z,99320.00
2023-01-19T06:40:56.090Z,99332.72
2023-01-19T06:43:23.563Z,99330.63
2023-01-19T06:45:51.624Z,99335.69
2023-01-19T06:48:20.006Z,99346.59
2023-01-19T06:50:48.437Z,99337.25
2023-01-19T06:53:17.364Z,99352.50
2023-01-19T06:55:45.047Z,99354.88
2023-01-19T06:58:12.909Z,99362.94
2023-01-19T07:00:40.881Z,99365.53
2023-01-19T07:03:09.325Z,99377.38
2023-01-19T07:05:37.005Z,99371.06
2023-01-19T07:08:04.802Z,99378.81
2023-01-19T07:11:24.855Z,99385.31
2023-01-19T07:13:19.949Z,99397.56
2023-01-19T07:15:47.539Z,99388.66
2023-01-19T07:18:15.048Z,99383.75
2023-01-19T07:20:44.405Z,99380.75
2023-01-19T07:23:11.941Z,99398.19
2023-01-19T07:25:39.649Z,99408.78
2023-01-19T07:28:07.436Z,99408.69
2023-01-19T07:30:35.178Z,99408.50
2023-01-19T07:33:03.373Z,99417.69
2023-01-19T07:35:31.115Z,99425.31
2023-01-19T07:37:59.396Z,99432.94
2023-01-19T07:40:27.393Z,99429.91
2023-01-19T07:42:57.655Z,99433.44
2023-01-19T07:45:27.175Z,99436.72
2023-01-19T07:47:55.604Z,99433.44
2023-01-19T07:50:25.616Z,99453.41
2023-01-19T07:52:53.933Z,99464.50
2023-01-19T07:55:23.561Z,99471.53
2023-01-19T07:57:52.114Z,99477.34
2023-01-19T08:00:22.311Z,99476.41
2023-01-19T08:02:51.316Z,99481.78
2023-01-19T08:05:19.635Z,99488.53
2023-01-19T08:07:48.442Z,99488.06
2023-01-19T08:10:16.816Z,99510.38
2023-01-19T08:12:44.533Z,99509.53
2023-01-19T08:15:12.147Z,99503.09
2023-01-19T08:17:39.866Z,99523.06
2023-01-19T08:20:09.362Z,99532.66
2023-01-19T08:22:37.377Z,99541.63
2023-01-19T08:25:05.230Z,99544.63
2023-01-19T08:27:32.749Z,99561.09
2023-01-19T08:30:01.459Z,99555.63
2023-01-19T08:32:29.063Z,99567.09
2023-01-19T08:34:56.802Z,99563.47
2023-01-19T08:37:24.888Z,99583.78
2023-01-19T08:39:53.951Z,99596.19
2023-01-19T08:42:21.587Z,99598.56
2023-01-19T08:44:57.639Z,99605.78
2023-01-19T08:47:25.596Z,99593.16
2023-01-19T08:49:53.021Z,99610.69
2023-01-19T08:52:20.543Z,99621.53
2023-01-19T08:54:47.996Z,99616.66
2023-01-19T08:57:16.274Z,99607.78
2023-01-19T08:59:43.823Z,99614.59
2023-01-19T09:02:12.185Z,99621.34
2023-01-19T09:04:39.792Z,99626.13
2023-01-19T09:07:07.580Z,99630.00
2023-01-19T09:09:37.920Z,99627.34
2023-01-19T09:12:05.455Z,99630.41
2023-01-19T09:14:32.971Z,99627.44
2023-01-19T09:17:00.482Z,99631.34
2023-01-19T09:19:27.992Z,99651.75
2023-01-19T09:21:55.470Z,99652.22
2023-01-19T09:24:22.972Z,99648.22
2023-01-19T09:26:50.388Z,99661.56
2023-01-19T09:29:17.971Z,99662.53
2023-01-19T09:31:45.769Z,99680.81
2023-01-19T09:34:13.357Z,99673.16
2023-01-19T09:36:40.901Z,99680.75
2023-01-19T09:39:09.343Z,99676.13
2023-01-19T09:41:38.960Z,99683.50
2023-01-19T09:44:08.466Z,99694.00
2023-01-19T09:46:40.414Z,99703.28
2023-01-19T09:49:17.288Z,99706.09
2023-01-19T09:51:48.750Z,99710.09
2023-01-19T09:54:35.937Z,99711.09
2023-01-19T09:57:09.837Z,99712.28
2023-01-19T09:59:38.935Z,99720.13
2023-01-19T10:02:36.238Z,99715.31
2023-01-19T10:05:13.791Z,99703.56
2023-01-19T10:08:24.751Z,99718.75
2023-01-19T10:10:54.376Z,99709.81
2023-01-19T10:13:32.117Z,99722.31
2023-01-19T10:16:21.517Z,99712.06
2023-01-19T10:18:51.929Z,99720.94
2023-01-19T10:21:22.530Z,99718.34
2023-01-19T10:24:06.269Z,99723.75
2023-01-19T10:26:38.838Z,99717.53
2023-01-19T10:29:13.525Z,99732.03
2023-01-19T10:31:44.928Z,99734.66
2023-01-19T10:34:21.527Z,99727.41
2023-01-19T10:36:59.090Z,99723.97
2023-01-19T10:39:26.646Z,99719.50
2023-01-19T10:41:54.237Z,99717.53
2023-01-19T10:44:30.139Z,99714.78
2023-01-19T10:47:00.308Z,99718.97
2023-01-19T10:49:38.132Z,99717.06
2023-01-19T10:52:07.854Z,99710.94
2023-01-19T10:54:37.591Z,99709.31
2023-01-19T10:57:09.146Z,99718.09
2023-01-19T10:59:51.252Z,99717.00
2023-01-19T11:02:20.687Z,99709.19
2023-01-19T11:04:53.707Z,99705.00
2023-01-19T11:07:35.778Z,99684.75
2023-01-19T11:10:12.605Z,99702.13
2023-01-19T11:13:07.812Z,99700.28
2023-01-19T11:15:35.784Z,99695.09
2023-01-19T11:18:05.732Z,99693.28
2023-01-19T11:20:54.341Z,99686.69
2023-01-19T11:23:45.489Z,99674.41
2023-01-19T11:26:25.978Z,99677.78
2023-01-19T11:28:56.559Z,99676.66
2023-01-19T11:31:30.037Z,99665.91
2023-01-19T11:34:02.942Z,99660.53
2023-01-19T11:36:36.869Z,99662.91
2023-01-19T11:39:24.418Z,99667.66
2023-01-19T11:41:57.208Z,99668.69
2023-01-19T11:44:33.807Z,99661.59
2023-01-19T11:47:11.240Z,99663.84
2023-01-19T11:49:58.561Z,99650.72
2023-01-19T11:52:37.386Z,99641.03
2023-01-19T11:55:10.906Z,99650.84
2023-01-19T11:57:43.748Z,99652.28
2023-01-19T12:00:31.802Z,99647.47
2023-01-19T12:03:08.605Z,99658.97
2023-01-19T12:05:40.487Z,99653.50
2023-01-19T12:08:12.748Z,99651.09
2023-01-19T12:10:44.404Z,99646.72
2023-01-19T12:13:32.465Z,99644.34
2023-01-19T12:16:06.042Z,99651.91
2023-01-19T12:18:40.768Z,99645.06
2023-01-19T12:21:08.689Z,99650.78
2023-01-19T12:23:48.358Z,99646.31
2023-01-19T12:26:29.741Z,99637.56
2023-01-19T12:29:05.594Z,99641.75
2023-01-19T12:31:33.755Z,99636.22
2023-01-19T12:34:43.896Z,99629.91
2023-01-19T12:37:26.132Z,99652.25
2023-01-19T12:39:56.249Z,99653.25
2023-01-19T12:42:24.425Z,99651.16
2023-01-19T12:45:08.296Z,99646.28
2023-01-19T12:47:37.042Z,99650.94
2023-01-19T12:50:13.911Z,99658.91
2023-01-19T12:52:51.730Z,99642.09
2023-01-19T12:55:24.406Z,99638.91
2023-01-19T12:58:04.066Z,99647.22
2023-01-19T13:00:34.924Z,99653.59
2023-01-19T13:03:25.294Z,99655.00
2023-01-19T13:05:55.109Z,99658.81
2023-01-19T13:08:24.940Z,99664.44
2023-01-19T13:11:10.725Z,99659.72
2023-01-19T13:13:41.063Z,99655.97
2023-01-19T13:16:27.661Z,99667.47
2023-01-19T13:19:01.348Z,99669.41
2023-01-19T13:21:42.403Z,99663.78
2023-01-19T13:24:17.589Z,99659.38
2023-01-19T13:26:51.592Z,99677.59
2023-01-19T13:29:36.395Z,99669.22
2023-01-19T13:32:16.365Z,99681.69
2023-01-19T13:34:48.031Z,99682.78
2023-01-19T13:37:20.017Z,99678.19
2023-01-19T13:39:50.232Z,99675.06
2023-01-19T13:42:26.025Z,99694.28
2023-01-19T13:44:55.394Z,99687.28
2023-01-19T13:47:27.270Z,99681.09
2023-01-19T13:49:56.738Z,99695.78
2023-01-19T13:52:31.346Z,99692.19
2023-01-19T13:55:03.091Z,99693.22
2023-01-19T13:57:30.833Z,99697.34
2023-01-19T14:00:07.864Z,99702.09
2023-01-19T14:03:18.586Z,99700.69
2023-01-19T14:05:46.300Z,99709.47
2023-01-19T14:08:15.365Z,99706.31
2023-01-19T14:11:02.487Z,99715.53
2023-01-19T14:13:33.633Z,99715.22
2023-01-19T14:16:15.026Z,99716.38
2023-01-19T14:18:42.928Z,99719.69
2023-01-19T14:21:15.588Z,99722.38
2023-01-19T14:23:47.907Z,99732.00
2023-01-19T14:26:37.395Z,99723.91
2023-01-19T14:29:17.814Z,99728.97
2023-01-19T14:31:47.923Z,99725.09
2023-01-19T14:34:34.740Z,99725.00
2023-01-19T14:37:04.090Z,99725.88
2023-01-19T14:39:34.961Z,99726.56
2023-01-19T14:42:07.177Z,99725.78
2023-01-19T14:44:39.739Z,99736.56
2023-01-19T14:47:23.059Z,99742.97
2023-01-19T14:49:50.751Z,99733.03
2023-01-19T14:52:42.297Z,99739.81
2023-01-19T14:55:50.122Z,99726.03
2023-01-19T14:58:19.924Z,99737.28
2023-01-19T15:00:49.297Z,99749.34
2023-01-19T15:03:16.852Z,99749.19
2023-01-19T15:05:46.635Z,99748.56
2023-01-19T15:08:28.017Z,99754.19
2023-01-19T15:10:56.237Z,99755.53
2023-01-19T15:13:27.152Z,99761.03
2023-01-19T15:15:54.756Z,99755.97
2023-01-19T15:18:27.108Z,99756.28
2023-01-19T15:21:02.815Z,99756.66
2023-01-19T15:23:31.403Z,99753.16
2023-01-19T15:26:00.649Z,99764.25
2023-01-19T15:28:28.597Z,99762.75
2023-01-19T15:30:57.707Z,99756.06
2023-01-19T15:33:27.744Z,99764.84
2023-01-19T15:35:55.306Z,99760.75
2023-01-19T15:38:23.522Z,99767.91
2023-01-19T15:40:51.626Z,99767.81
2023-01-19T15:43:19.305Z,99763.47
2023-01-19T15:45:48.610Z,99771.13
2023-01-19T15:48:16.137Z,99772.31
2023-01-19T15:50:45.212Z,99774.59
2023-01-19T15:53:14.752Z,99777.50
2023-01-19T15:55:42.902Z,99775.13
2023-01-19T15:58:13.852Z,99774.81
2023-01-19T16:00:41.697Z,99780.19
2023-01-19T16:03:10.875Z,99780.19
2023-01-19T16:05:43.362Z,99769.53
2023-01-19T16:08:11.779Z,99778.81
2023-01-19T16:10:41.047Z,99784.22
2023-01-19T16:13:10.382Z,99782.63
2023-01-19T16:15:39.658Z,99787.91
2023-01-19T16:18:07.123Z,99792.78
2023-01-19T16:20:34.656Z,99797.16
2023-01-19T16:23:14.440Z,99796.97
2023-01-19T16:25:43.148Z,99790.59
2023-01-19T16:28:10.731Z,99800.38
2023-01-19T16:30:38.333Z,99795.78
2023-01-19T16:33:05.908Z,99790.06
2023-01-19T16:35:33.526Z,99795.97
2023-01-19T16:38:00.971Z,99799.56
2023-01-19T16:40:28.511Z,99804.72
2023-01-19T16:42:56.096Z,99801.47
2023-01-19T16:45:23.554Z,99807.94
2023-01-19T16:47:52.350Z,99816.03
2023-01-19T16:50:20.559Z,99829.47
2023-01-19T16:52:49.588Z,99835.75
2023-01-19T16:55:17.187Z,99839.16
2023-01-19T16:57:44.591Z,99844.72
2023-01-19T17:00:13.003Z,99847.19
2023-01-19T17:02:40.899Z,99854.25
2023-01-19T17:05:08.954Z,99866.13
2023-01-19T17:07:36.567Z,99862.50
2023-01-19T17:10:05.554Z,99865.88
2023-01-19T17:12:33.001Z,99877.16
2023-01-19T17:15:00.637Z,99876.44
2023-01-19T17:17:28.246Z,99878.66
2023-01-19T17:19:55.839Z,99884.47
2023-01-19T17:22:23.441Z,99877.38
2023-01-19T17:24:50.906Z,99877.09
2023-01-19T17:27:18.345Z,99878.59
2023-01-19T17:29:45.833Z,99880.09
2023-01-19T17:32:13.409Z,99878.13
2023-01-19T17:34:40.884Z,99895.09
2023-01-19T17:37:08.194Z,99886.03
2023-01-19T17:39:35.562Z,99881.50
2023-01-19T17:42:03.296Z,99886.00
2023-01-19T17:44:31.010Z,99879.34
2023-01-19T17:46:59.950Z,99887.88
2023-01-19T17:49:27.734Z,99885.59
2023-01-19T17:51:55.867Z,99886.19
2023-01-19T17:54:23.444Z,99889.59
2023-01-19T17:56:51.076Z,99886.91
2023-01-19T17:59:18.581Z,99889.09
2023-01-19T18:01:46.561Z,99894.59
2023-01-19T18:04:14.291Z,99889.22
2023-01-19T18:06:41.829Z,99897.28
2023-01-19T18:09:11.880Z,99894.09
2023-01-19T18:11:39.340Z,99898.38
2023-01-19T18:14:06.868Z,99905.38
2023-01-19T18:16:35.288Z,99899.41
2023-01-19T18:19:02.808Z,99900.28
2023-01-19T18:21:30.733Z,99901.59
2023-01-19T18:24:02.267Z,99899.97
2023-01-19T18:26:30.733Z,99902.88
2023-01-19T18:28:58.999Z,99901.69
2023-01-19T18:31:27.379Z,99888.63
2023-01-19T18:33:55.164Z,99892.81
2023-01-19T18:36:22.966Z,99893.13
2023-01-19T18:38:50.634Z,99895.03
2023-01-19T18:41:21.825Z,99889.53
2023-01-19T18:43:50.039Z,99883.63
2023-01-19T18:46:17.660Z,99880.94
2023-01-19T18:48:45.155Z,99878.44
2023-01-19T18:51:15.743Z,99878.81
2023-01-19T18:53:44.052Z,99887.50
2023-01-19T18:56:13.659Z,99883.72
2023-01-19T18:58:41.815Z,99882.13
2023-01-19T19:01:25.312Z,99881.59
2023-01-19T19:03:54.523Z,99878.91
2023-01-19T19:06:23.970Z,99879.44
2023-01-19T19:08:52.699Z,99879.72
2023-01-19T19:11:22.355Z,99885.09
2023-01-19T19:13:55.048Z,99877.09
2023-01-19T19:16:22.697Z,99888.28
2023-01-19T19:18:50.973Z,99879.50
2023-01-19T19:21:19.721Z,99884.97
2023-01-19T19:23:55.027Z,99871.50
2023-01-19T19:26:24.372Z,99884.81
2023-01-19T19:28:51.929Z,99882.22
2023-01-19T19:31:21.358Z,99881.59
2023-01-19T19:33:51.082Z,99877.53
2023-01-19T19:36:20.581Z,99881.25
2023-01-19T19:38:49.752Z,99877.63
2023-01-19T19:41:20.979Z,99884.97
2023-01-19T19:43:48.828Z,99882.41
2023-01-19T19:46:20.217Z,99878.06
2023-01-19T19:48:48.731Z,99892.91
2023-01-19T19:51:19.675Z,99894.88
2023-01-19T19:53:50.185Z,99889.84
2023-01-19T19:56:21.431Z,99886.66
2023-01-19T19:58:50.403Z,99887.22
2023-01-19T20:01:20.473Z,99882.00
2023-01-19T20:03:49.095Z,99889.25
2023-01-19T20:06:22.402Z,99885.34
2023-01-19T20:08:52.131Z,99883.53
2023-01-19T20:11:25.918Z,99897.31
2023-01-19T20:13:54.034Z,99887.66
2023-01-19T20:16:23.407Z,99893.81
2023-01-19T20:18:54.372Z,99898.13
2023-01-19T20:21:25.520Z,99899.25
2023-01-19T20:23:54.472Z,99901.88
2023-01-19T20:26:27.751Z,99901.69
2023-01-19T20:28:59.897Z,99903.13
2023-01-19T20:31:30.461Z,99899.00
2023-01-19T20:34:00.533Z,99902.97
2023-01-19T20:36:29.017Z,99910.25
2023-01-19T20:38:57.222Z,99903.03
2023-01-19T20:41:26.802Z,99897.38
2023-01-19T20:43:54.340Z,99897.38
2023-01-19T20:46:21.850Z,99907.25
2023-01-19T20:48:53.035Z,99906.25
2023-01-19T20:51:20.874Z,99910.59
2023-01-19T20:53:48.399Z,99917.22
2023-01-19T20:56:17.132Z,99926.19
2023-01-19T20:58:44.664Z,99919.53
2023-01-19T21:01:23.272Z,99933.41
2023-01-19T21:03:52.072Z,99940.72
2023-01-19T21:06:20.890Z,99942.31
2023-01-19T21:08:50.246Z,99940.16
2023-01-19T21:11:21.091Z,99941.75
2023-01-19T21:13:50.717Z,99946.28
2023-01-19T21:16:18.154Z,99940.97
2023-01-19T21:18:45.957Z,99951.78
2023-01-19T21:21:29.050Z,99939.31
2023-01-19T21:23:58.456Z,99954.41
2023-01-19T21:26:26.085Z,99941.06
2023-01-19T21:28:53.859Z,99942.66
2023-01-19T21:31:27.097Z,99945.63
2023-01-19T21:33:55.869Z,99944.75
2023-01-19T21:36:24.680Z,99946.38
2023-01-19T21:38:52.619Z,99945.34
2023-01-19T21:41:20.211Z,99949.88
2023-01-19T21:43:47.664Z,99938.97
2023-01-19T21:46:21.676Z,99948.75
2023-01-19T21:48:49.531Z,99964.91
2023-01-19T21:51:16.925Z,99955.81
2023-01-19T21:53:44.546Z,99963.56
2023-01-19T21:56:12.003Z,99963.63
2023-01-19T21:58:39.475Z,99973.03
2023-01-19T22:01:13.886Z,99970.34
2023-01-19T22:03:42.344Z,99966.69
2023-01-19T22:06:12.836Z,99980.34
2023-01-19T22:08:40.884Z,99970.47
2023-01-19T22:11:11.901Z,99974.91
2023-01-19T22:13:39.584Z,99982.91
2023-01-19T22:16:10.507Z,99984.41
2023-01-19T22:18:40.003Z,99987.63
2023-01-19T22:21:16.291Z,99982.00
2023-01-19T22:23:44.704Z,99994.34
2023-01-19T22:26:12.311Z,99991.38
2023-01-19T22:28:39.755Z,99990.25
2023-01-19T22:31:10.333Z,99988.28
2023-01-19T22:33:38.399Z,99984.09
2023-01-19T22:36:19.540Z,99983.28
2023-01-19T22:38:54.371Z,99981.13
2023-01-19T22:41:25.666Z,99977.63
2023-01-19T22:43:55.479Z,99986.56
2023-01-19T22:46:25.362Z,99982.50
2023-01-19T22:48:53.174Z,99984.53
2023-01-19T22:51:22.395Z,99987.31
2023-01-19T22:53:50.739Z,99979.72
2023-01-19T22:56:29.862Z,99992.00
2023-01-19T22:58:58.895Z,99995.75
2023-01-19T23:01:38.212Z,99992.34
2023-01-19T23:04:07.147Z,99994.47
2023-01-19T23:06:36.951Z,99993.72
2023-01-19T23:09:07.663Z,99994.47
2023-01-19T23:11:41.304Z,99997.09
2023-01-19T23:14:13.751Z,100000.63
2023-01-19T23:16:41.681Z,100001.44
2023-01-19T23:19:11.882Z,100007.38
2023-01-19T23:21:40.060Z,100003.44
2023-01-19T23:24:08.301Z,100004.00
2023-01-19T23:26:39.115Z,100019.56
2023-01-19T23:29:12.940Z,100013.75
2023-01-19T23:31:45.378Z,100010.75
2023-01-19T23:34:13.663Z,100019.16
2023-01-19T23:36:42.738Z,100010.75
2023-01-19T23:39:19.924Z,100012.53
2023-01-19T23:41:48.212Z,100015.28
2023-01-19T23:44:15.894Z,100004.53
2023-01-19T23:46:44.131Z,100021.41
2023-01-19T23:49:12.919Z,100013.56
2023-01-19T23:51:41.170Z,100023.28
2023-01-19T23:54:08.928Z,100019.78
2023-01-19T23:56:38.452Z,100017.63
2023-01-19T23:59:08.757Z,100019.00
